Etusivu
METAR-TAF:

METAR-TAF

Lentoasemat :

Tukholma, Ruotsi

Bromman lentoasema

Leveyspiiri: 59-21N, Pituuspiiri: 017-57E, korkeus merenpinnasta: 14 m

Tämänhetkinen sää

Tämä raportti tehtiin 28 minuuttia sitten, kello 23.50 UTC
Tuuli 3 kn idästä
Lämpötila 8°C
Kosteus 76%
Ilmanpaine 1011 hPa
Näkyvyys 10 km tai enemmän

METAR: ESSB 282350Z AUTO 08003KT 9999 NCD 08/04 Q1011

Aika: 02:18 (00:18 UTC)

Sääennuste

Tämä raportti tehtiin 6 tuntia ja 48 minuuttia sitten, kello 17.30 UTC
Ennuste voimassa 28. päivästä klo 18 UTC - 28. päivään klo 20 UTC
Tuuli 8 kn idästä
Näkyvyys 10 km tai enemmän
ei pilviä alle 1500 m:ssä eikä cumulonimbus-pilviä

TAF: ESSB 281730Z 2818/2820 10008KT CAVOK

Säähavainnot ja -ennusteet yli 4000 lentoasemalta (METAR- ja TAF-raportit).

Käytössä olevat sääasemat on merkitty karttaan keltaisilla ja punaisilla pisteillä.

Aseta hiiri pisteen päälle nähdäksesi sääaseman nimen.

Klikkaa sitten nähdäksesi säähavainnot ja -ennusteet.

Kartan vaihtaminen: klikkaa mustalla rastilla varustettuja vihreitä pisteitä, niin voit zoomata sisään; viivalla varustettua vihreää pistettä, niin voit zoomata ulos tai vihreitä nuolia, niin pääset viereisille kartoille.


METAR-TAF: